Time;durP1;ratioP1;P1;durP2;ratioP2;P2;SDS_P1;SDS_P2;PMS_P1;PMS_P2;Temp;Humidity;BMP_temperature;BMP_pressure;BME280_temperature;BME280_humidity;BME280_pressure;Samples;Min_cycle;Max_cycle;Signal;HPM_P1;HPM_P2
2021/07/21 00:02:22;;;;;;;3.85;2.53;;;;;;;26.08;45.89;100423.47;4881589;29;20076;-74
2021/07/21 00:05:28;;;;;;;4.80;2.80;;;;;;;26.04;45.78;100430.53;4880935;29;20059;-74
2021/07/21 00:08:32;;;;;;;4.93;2.85;;;;;;;25.96;46.03;100428.94;4881219;29;20056;-74
2021/07/21 00:14:59;;;;;;;5.45;2.80;;;;;;;25.93;45.69;100423.88;4881286;29;20072;-74
2021/07/21 00:18:22;;;;;;;6.00;3.08;;;;;;;25.90;46.54;100420.78;4869559;29;20073;-74
2021/07/21 00:21:26;;;;;;;5.90;2.65;;;;;;;25.90;45.87;100427.09;4880696;29;20056;-73
2021/07/21 00:24:31;;;;;;;5.55;2.55;;;;;;;25.87;46.25;100422.09;4869771;29;20060;-74
2021/07/21 00:27:43;;;;;;;4.80;2.70;;;;;;;25.89;45.69;100425.44;4880836;29;20056;-74
2021/07/21 00:30:47;;;;;;;8.70;2.90;;;;;;;25.88;46.27;100436.66;4880679;29;20508;-73
2021/07/21 00:33:51;;;;;;;4.63;3.13;;;;;;;25.90;46.76;100449.09;4880457;29;20056;-74
2021/07/21 00:36:56;;;;;;;4.70;3.10;;;;;;;25.56;48.71;100441.50;4881061;29;20126;-74
2021/07/21 00:40:41;;;;;;;6.00;3.10;;;;;;;25.57;48.86;100451.44;4880770;29;20047;-74
2021/07/21 00:43:47;;;;;;;4.53;2.95;;;;;;;25.55;48.54;100459.94;4875348;29;20402;-73
2021/07/21 00:46:51;;;;;;;5.78;3.60;;;;;;;25.54;49.55;100458.25;4880677;29;20057;-73
2021/07/21 00:49:55;;;;;;;7.78;3.80;;;;;;;25.54;49.63;100457.41;4869249;29;20052;-74
2021/07/21 00:53:00;;;;;;;6.35;4.22;;;;;;;25.50;50.00;100454.28;4880772;29;20060;-73
2021/07/21 00:56:05;;;;;;;6.50;3.90;;;;;;;25.49;50.47;100457.25;4858594;29;20413;-74
2021/07/21 00:59:10;;;;;;;7.32;4.07;;;;;;;25.50;50.25;100453.44;4868710;29;20059;-74
2021/07/21 01:02:19;;;;;;;7.68;3.70;;;;;;;25.52;49.93;100446.66;4869219;29;20075;-74
2021/07/21 01:05:29;;;;;;;7.95;4.35;;;;;;;25.54;50.10;100450.00;4868497;29;20409;-74
2021/07/21 01:08:38;;;;;;;6.28;3.70;;;;;;;25.56;50.24;100447.00;4861236;29;20496;-74
2021/07/21 01:12:02;;;;;;;6.47;3.63;;;;;;;25.63;50.57;100450.50;4861636;29;20064;-73
2021/07/21 01:15:17;;;;;;;7.10;3.22;;;;;;;25.67;50.29;100449.00;4860873;29;20060;-74
2021/07/21 01:18:47;;;;;;;6.90;2.88;;;;;;;25.74;50.13;100453.34;4861139;29;20068;-74
2021/07/21 01:22:13;;;;;;;4.95;2.85;;;;;;;25.69;50.29;100452.34;4850056;29;20057;-73
2021/07/21 01:25:35;;;;;;;6.35;3.20;;;;;;;25.56;50.79;100458.00;4860300;29;20061;-74
2021/07/21 01:28:51;;;;;;;9.43;4.05;;;;;;;25.40;50.29;100450.34;4860931;29;20057;-74
2021/07/21 01:32:00;;;;;;;6.18;3.60;;;;;;;25.43;50.51;100453.47;4860536;29;20069;-74
2021/07/21 01:35:12;;;;;;;9.35;3.90;;;;;;;25.31;50.85;100455.28;4861034;29;20056;-74
2021/07/21 01:38:23;;;;;;;9.40;4.32;;;;;;;25.29;50.39;100451.09;4860959;29;20505;-75
2021/07/21 01:41:36;;;;;;;6.28;4.38;;;;;;;25.23;50.58;100450.13;4861676;29;20497;-74
2021/07/21 01:44:47;;;;;;;10.70;4.70;;;;;;;25.20;50.75;100458.81;4861709;29;20386;-74
2021/07/21 01:47:56;;;;;;;10.73;5.45;;;;;;;25.09;52.64;100465.03;4860857;29;20385;-74
2021/07/21 01:51:04;;;;;;;11.93;6.03;;;;;;;25.12;52.90;100462.69;4860573;29;20137;-74
2021/07/21 01:54:10;;;;;;;11.68;5.40;;;;;;;25.05;52.96;100461.91;4861083;29;20429;-73
2021/07/21 01:57:27;;;;;;;6.40;5.00;;;;;;;25.09;53.15;100452.16;4860529;29;20498;-74
2021/07/21 02:00:52;;;;;;;13.20;5.00;;;;;;;25.16;52.62;100455.66;4861516;29;20057;-74
2021/07/21 02:04:00;;;;;;;9.95;5.72;;;;;;;25.19;53.20;100459.88;4861265;29;20509;-73
2021/07/21 02:07:13;;;;;;;11.32;4.68;;;;;;;25.10;52.94;100456.59;4863231;29;20144;-74
2021/07/21 02:10:22;;;;;;;8.48;4.10;;;;;;;24.98;52.00;100461.16;4864651;29;20505;-74
2021/07/21 02:13:42;;;;;;;7.93;4.43;;;;;;;24.99;52.52;100462.81;4863902;29;20057;-74
2021/07/21 02:17:09;;;;;;;6.07;4.88;;;;;;;24.88;51.88;100462.72;4853398;29;20505;-74
2021/07/21 02:20:19;;;;;;;9.65;4.93;;;;;;;24.66;52.70;100453.16;4864147;29;20049;-74
2021/07/21 02:23:30;;;;;;;8.70;6.05;;;;;;;24.50;53.51;100458.13;4853422;29;20109;-74
2021/07/21 02:26:53;;;;;;;10.15;5.90;;;;;;;24.31;53.71;100469.25;4864316;29;20513;-73
2021/07/21 02:29:59;;;;;;;7.72;5.10;;;;;;;24.20;53.93;100469.94;4863609;29;20060;-73
2021/07/21 02:33:14;;;;;;;10.18;4.45;;;;;;;24.07;53.64;100467.25;4864222;29;20061;-73
2021/07/21 02:36:18;;;;;;;4.57;3.30;;;;;;;23.91;53.32;100469.44;4863675;29;20045;-74
2021/07/21 02:39:24;;;;;;;6.43;3.55;;;;;;;23.71;53.53;100478.78;4864488;29;20044;-74
2021/07/21 02:42:29;;;;;;;5.45;3.92;;;;;;;23.63;53.72;100477.13;4863409;29;20056;-74
2021/07/21 02:45:35;;;;;;;6.35;3.22;;;;;;;23.52;54.07;100482.44;4863551;29;20053;-73
2021/07/21 02:48:46;;;;;;;5.38;3.70;;;;;;;23.33;54.26;100476.75;4863749;29;20053;-73
2021/07/21 02:52:24;;;;;;;5.50;3.40;;;;;;;23.31;54.46;100472.56;4852338;29;20060;-74
2021/07/21 02:55:38;;;;;;;4.50;2.95;;;;;;;23.29;54.02;100475.53;4864136;29;20052;-73
2021/07/21 02:58:53;;;;;;;4.35;2.97;;;;;;;23.24;53.91;100479.94;4852710;29;20057;-74
2021/07/21 03:02:02;;;;;;;5.53;3.05;;;;;;;23.29;54.09;100482.88;4863255;29;20056;-74
2021/07/21 03:05:20;;;;;;;9.88;3.70;;;;;;;23.26;54.29;100486.91;4863683;29;20056;-74
2021/07/21 03:08:38;;;;;;;5.45;3.55;;;;;;;23.30;54.39;100487.31;4863163;29;20497;-74
2021/07/21 03:12:13;;;;;;;6.35;2.90;;;;;;;23.43;53.76;100484.56;4863427;29;20060;-74
2021/07/21 03:15:52;;;;;;;6.73;3.10;;;;;;;23.56;53.80;100484.53;4863380;29;20052;-74
2021/07/21 03:19:04;;;;;;;4.10;2.90;;;;;;;23.66;53.57;100486.81;4850927;29;20053;-74
2021/07/21 03:22:20;;;;;;;6.28;3.00;;;;;;;23.65;53.47;100494.19;4863784;29;20378;-74
2021/07/21 03:25:33;;;;;;;5.45;2.80;;;;;;;23.69;53.50;100503.69;4862891;29;20056;-74
2021/07/21 03:28:38;;;;;;;4.57;3.15;;;;;;;23.73;52.97;100496.72;4863657;29;20065;-73
2021/07/21 03:31:43;;;;;;;6.95;3.35;;;;;;;23.75;53.10;100494.59;4862453;29;20064;-74
2021/07/21 03:34:53;;;;;;;4.95;3.10;;;;;;;23.54;53.78;100497.63;4862660;29;20517;-73
2021/07/21 03:37:59;;;;;;;5.57;2.95;;;;;;;23.33;54.32;100504.16;4862644;29;20064;-74
2021/07/21 03:41:05;;;;;;;4.65;3.40;;;;;;;23.10;54.75;100497.47;4862325;29;20065;-74
2021/07/21 03:44:22;;;;;;;5.28;3.22;;;;;;;22.89;55.62;100511.34;4877625;29;20068;-74
2021/07/21 03:47:28;;;;;;;6.45;3.30;;;;;;;22.81;56.07;100509.69;4881548;29;20068;-73
2021/07/21 03:50:35;;;;;;;10.35;3.17;;;;;;;22.71;56.40;100514.75;4870250;29;20500;-73
2021/07/21 03:53:41;;;;;;;5.65;3.08;;;;;;;22.58;56.33;100512.81;4881737;29;20469;-73
2021/07/21 03:56:50;;;;;;;5.00;3.50;;;;;;;22.49;56.85;100514.03;4880882;29;20044;-73
2021/07/21 03:59:55;;;;;;;7.20;3.40;;;;;;;22.53;56.34;100517.19;4870145;29;20401;-74
2021/07/21 04:03:02;;;;;;;6.22;3.15;;;;;;;22.47;56.81;100521.59;4870042;29;20512;-74
2021/07/21 04:06:24;;;;;;;4.15;2.63;;;;;;;22.43;57.08;100527.69;4880646;29;20060;-73
2021/07/21 04:09:45;;;;;;;7.20;3.40;;;;;;;22.58;56.46;100534.69;4881233;29;20480;-74
2021/07/21 04:12:53;;;;;;;6.45;3.30;;;;;;;22.77;56.04;100535.78;4869506;29;20516;-74
2021/07/21 04:16:02;;;;;;;9.77;3.40;;;;;;;22.93;55.67;100531.81;4881269;29;20072;-73
2021/07/21 04:19:14;;;;;;;4.10;3.30;;;;;;;23.00;55.29;100547.19;4870047;29;20060;-74
2021/07/21 04:22:21;;;;;;;6.85;3.40;;;;;;;23.05;54.94;100539.19;4859155;29;20060;-74
2021/07/21 04:25:30;;;;;;;4.55;3.33;;;;;;;22.95;55.08;100540.66;4881159;29;20072;-74
2021/07/21 04:28:39;;;;;;;5.43;3.08;;;;;;;23.00;55.35;100536.22;4869256;29;20051;-73
2021/07/21 04:31:48;;;;;;;8.93;2.92;;;;;;;23.19;54.04;100542.75;4869178;29;20064;-73
2021/07/21 04:34:53;;;;;;;7.47;3.00;;;;;;;23.45;53.46;100553.72;4868659;29;20406;-74
2021/07/21 04:38:02;;;;;;;5.20;2.80;;;;;;;24.01;52.63;100555.88;4880447;29;20051;-74
2021/07/21 04:41:27;;;;;;;5.22;2.83;;;;;;;24.47;51.57;100548.28;4871601;29;20405;-74
2021/07/21 04:44:45;;;;;;;4.45;2.67;;;;;;;24.86;51.15;100556.28;4865394;29;20060;-73
2021/07/21 04:47:53;;;;;;;5.63;2.90;;;;;;;25.09;50.21;100564.78;4880555;29;20060;-73
2021/07/21 04:51:00;;;;;;;4.78;2.63;;;;;;;25.52;48.93;100559.38;4879882;29;20493;-74
2021/07/21 04:54:06;;;;;;;8.73;3.00;;;;;;;25.74;48.58;100555.09;4880700;29;20064;-74
2021/07/21 04:57:18;;;;;;;5.38;2.63;;;;;;;26.04;47.34;100554.34;4880681;29;20056;-73
2021/07/21 05:00:39;;;;;;;8.37;3.30;;;;;;;26.19;47.21;100565.81;4869075;29;20052;-73
2021/07/21 05:03:54;;;;;;;6.63;3.03;;;;;;;26.62;45.68;100573.91;4879470;29;20496;-73
2021/07/21 05:07:19;;;;;;;5.97;3.30;;;;;;;26.93;45.38;100570.94;4880308;29;20529;-73
2021/07/21 05:10:27;;;;;;;11.20;6.13;;;;;;;27.15;44.01;100574.81;4868888;29;20389;-73
2021/07/21 05:13:37;;;;;;;30.50;26.90;;;;;;;27.11;44.46;100579.09;4880403;29;20056;-73
2021/07/21 05:16:42;;;;;;;5.78;4.18;;;;;;;27.85;42.66;100563.84;4879934;29;20045;-73
2021/07/21 05:19:47;;;;;;;9.65;3.75;;;;;;;28.02;42.13;100570.31;4868952;29;20484;-73
2021/07/21 05:22:53;;;;;;;7.60;3.50;;;;;;;28.85;41.13;100576.97;4868616;29;20052;-73
2021/07/21 05:25:59;;;;;;;12.98;7.35;;;;;;;29.61;39.35;100579.13;4879257;29;20072;-73
2021/07/21 05:29:10;;;;;;;9.57;3.30;;;;;;;30.34;37.86;100585.41;4880321;29;20072;-73
2021/07/21 05:32:24;;;;;;;13.13;2.60;;;;;;;30.06;38.56;100584.50;4880014;29;20080;-73
2021/07/21 05:35:58;;;;;;;15.13;3.33;;;;;;;30.36;38.06;100589.63;4859442;29;20049;-73
2021/07/21 05:39:06;;;;;;;27.60;3.33;;;;;;;30.77;37.72;100593.69;4859166;29;20175;-73
2021/07/21 05:42:12;;;;;;;20.80;3.40;;;;;;;31.17;36.83;100596.06;4850896;29;20049;-74
2021/07/21 05:45:19;;;;;;;21.27;3.80;;;;;;;31.62;36.69;100592.84;4863021;29;20052;-73
2021/07/21 05:48:23;;;;;;;24.45;3.72;;;;;;;33.13;33.97;100599.09;4860321;29;20053;-73
2021/07/21 05:51:46;;;;;;;33.25;3.75;;;;;;;34.81;32.00;100595.69;4858749;29;20080;-74
2021/07/21 05:54:56;;;;;;;21.00;3.28;;;;;;;36.63;29.02;100598.41;4862704;29;20060;-74
2021/07/21 05:58:01;;;;;;;21.30;2.83;;;;;;;37.04;28.39;100599.50;4862809;29;20734;-74
2021/07/21 06:01:06;;;;;;;20.33;3.08;;;;;;;38.60;27.24;100595.78;4861997;29;20158;-74
2021/07/21 06:04:12;;;;;;;12.13;3.13;;;;;;;39.15;25.75;100602.09;4852097;29;20526;-72
2021/07/21 06:07:35;;;;;;;11.63;2.70;;;;;;;40.51;24.53;100606.06;4863135;29;20499;-74
2021/07/21 06:11:08;;;;;;;9.15;2.75;;;;;;;41.10;23.52;100608.16;4866121;29;20049;-72
2021/07/21 06:14:12;;;;;;;14.68;2.80;;;;;;;41.81;23.08;100612.25;4883701;29;20060;-72
2021/07/21 06:17:17;;;;;;;9.30;2.50;;;;;;;42.20;22.33;100616.78;4883067;29;20052;-73
2021/07/21 06:20:54;;;;;;;16.25;2.97;;;;;;;43.33;21.95;100624.22;4862364;29;20057;-72
2021/07/21 06:24:00;;;;;;;12.10;2.63;;;;;;;44.02;20.90;100615.00;4851813;29;20065;-72
2021/07/21 06:27:05;;;;;;;18.42;3.30;;;;;;;44.40;20.58;100616.34;4851147;29;20041;-72
2021/07/21 06:30:18;;;;;;;23.55;2.72;;;;;;;44.31;21.13;100623.31;4861007;29;20491;-73
2021/07/21 06:33:27;;;;;;;11.68;2.40;;;;;;;44.19;21.33;100634.63;4845344;29;20394;-72
2021/07/21 06:36:31;;;;;;;6.82;2.42;;;;;;;44.40;20.47;100639.00;4851522;29;20054;-72
2021/07/21 06:39:36;;;;;;;6.63;2.30;;;;;;;45.25;20.44;100635.28;4861532;29;20056;-72
2021/07/21 06:42:41;;;;;;;3.70;2.20;;;;;;;44.30;20.64;100645.13;4833050;29;20080;-72
2021/07/21 06:45:46;;;;;;;10.63;2.20;;;;;;;44.86;20.46;100657.56;4843795;29;20053;-73
2021/07/21 06:48:53;;;;;;;5.47;2.00;;;;;;;44.19;20.69;100649.63;4843702;29;20046;-72
2021/07/21 06:52:03;;;;;;;16.42;2.80;;;;;;;44.91;20.34;100648.81;4849289;29;20457;-72
2021/07/21 06:55:13;;;;;;;13.32;2.67;;;;;;;44.88;20.52;100649.53;4858737;29;20057;-72
2021/07/21 06:58:23;;;;;;;6.00;2.40;;;;;;;45.54;20.13;100658.44;4882042;29;20072;-72
2021/07/21 07:01:36;;;;;;;5.07;2.10;;;;;;;45.97;19.98;100656.81;4882466;29;20048;-72
2021/07/21 07:05:01;;;;;;;27.65;3.13;;;;;;;46.55;19.38;100653.09;4883120;29;20402;-73
2021/07/21 07:08:24;;;;;;;30.38;3.95;;;;;;;46.56;19.39;100660.44;4882164;29;20041;-75
2021/07/21 07:12:01;;;;;;;31.33;3.67;;;;;;;46.34;19.68;100656.25;4875749;29;20048;-72
2021/07/21 07:15:07;;;;;;;34.53;3.40;;;;;;;47.61;17.95;100659.22;4857206;29;20062;-73
2021/07/21 07:18:14;;;;;;;33.65;2.95;;;;;;;47.51;18.74;100667.53;4879571;29;20076;-72
2021/07/21 07:21:20;;;;;;;10.82;2.70;;;;;;;49.36;17.68;100664.69;4869608;29;20056;-72
2021/07/21 07:24:26;;;;;;;9.88;2.90;;;;;;;48.75;18.45;100664.97;4877769;29;20056;-73
2021/07/21 07:27:31;;;;;;;11.43;2.83;;;;;;;47.87;18.61;100666.25;4880834;29;20071;-72
2021/07/21 07:30:36;;;;;;;13.80;3.30;;;;;;;48.01;18.63;100663.66;4859497;29;20056;-74
2021/07/21 07:33:40;;;;;;;8.23;2.95;;;;;;;48.15;18.07;100672.50;4871777;29;20053;-73
2021/07/21 07:36:45;;;;;;;6.13;2.70;;;;;;;49.04;17.70;100671.97;4881660;29;20409;-73
2021/07/21 07:39:50;;;;;;;15.07;2.90;;;;;;;47.35;17.36;100676.13;4881586;29;20523;-73
2021/07/21 07:42:54;;;;;;;7.60;2.70;;;;;;;47.55;17.45;100674.97;4881119;29;20052;-73
2021/07/21 07:45:59;;;;;;;7.22;2.42;;;;;;;47.57;17.42;100674.59;4881562;29;20056;-73
2021/07/21 07:49:04;;;;;;;9.85;2.40;;;;;;;49.23;16.27;100666.13;4881324;29;20073;-73
2021/07/21 07:52:08;;;;;;;7.38;2.65;;;;;;;49.49;16.65;100671.75;4880633;29;20394;-73
2021/07/21 07:55:13;;;;;;;7.65;3.50;;;;;;;50.52;16.71;100671.63;4881214;29;20075;-73
2021/07/21 07:58:17;;;;;;;8.40;4.03;;;;;;;48.40;18.08;100673.75;4869976;29;20052;-73
2021/07/21 08:01:21;;;;;;;10.95;4.43;;;;;;;47.37;19.16;100670.06;4881035;29;20048;-73
2021/07/21 08:04:26;;;;;;;9.38;3.47;;;;;;;48.90;17.54;100673.38;4869046;29;20045;-74
2021/07/21 08:07:34;;;;;;;9.05;3.85;;;;;;;48.49;17.69;100677.16;4875409;29;20053;-73
2021/07/21 08:10:38;;;;;;;6.70;4.07;;;;;;;48.11;18.12;100671.56;4860552;29;20056;-73
2021/07/21 08:13:43;;;;;;;6.10;3.67;;;;;;;49.55;17.23;100673.09;4880955;29;20052;-73
2021/07/21 08:16:49;;;;;;;14.13;4.25;;;;;;;47.71;18.21;100663.47;4880433;29;20048;-72
2021/07/21 08:19:53;;;;;;;9.23;4.00;;;;;;;47.52;18.57;100661.47;4880854;29;20064;-72
2021/07/21 08:22:57;;;;;;;8.30;3.47;;;;;;;46.45;19.01;100677.22;4858153;29;20048;-72
2021/07/21 08:26:02;;;;;;;5.93;3.22;;;;;;;46.90;18.71;100665.34;4858750;29;20067;-72
2021/07/21 08:29:08;;;;;;;9.60;4.40;;;;;;;43.93;21.34;100678.19;4858144;29;20060;-72
2021/07/21 08:32:13;;;;;;;15.38;4.50;;;;;;;40.74;25.22;100670.38;4858716;29;20520;-72
2021/07/21 08:35:21;;;;;;;12.57;4.70;;;;;;;39.78;25.93;100666.59;4858728;29;20056;-74
2021/07/21 08:38:26;;;;;;;13.50;4.95;;;;;;;38.68;27.66;100661.56;4856417;29;20064;-73
2021/07/21 08:41:31;;;;;;;12.82;4.57;;;;;;;37.80;29.74;100662.72;4848253;29;20397;-73
2021/07/21 08:44:37;;;;;;;15.02;4.55;;;;;;;36.96;30.26;100663.75;4847806;29;20493;-73
2021/07/21 08:47:41;;;;;;;11.85;5.07;;;;;;;36.26;31.82;100663.47;4858547;29;20053;-74
2021/07/21 08:50:47;;;;;;;11.32;5.38;;;;;;;35.75;33.00;100670.69;4847553;29;20041;-73
2021/07/21 08:53:52;;;;;;;23.13;5.97;;;;;;;35.26;33.53;100663.19;4848017;29;20060;-73
2021/07/21 08:56:59;;;;;;;14.57;6.18;;;;;;;35.18;34.03;100661.03;4857999;29;20064;-74
2021/07/21 09:00:06;;;;;;;11.20;5.53;;;;;;;35.03;35.01;100661.16;4847716;29;20055;-73
2021/07/21 09:03:11;;;;;;;11.73;6.57;;;;;;;34.46;35.66;100660.81;4857648;29;20406;-73
2021/07/21 09:06:16;;;;;;;13.35;6.22;;;;;;;34.44;35.46;100666.66;4847610;29;20059;-74
2021/07/21 09:09:20;;;;;;;12.70;6.05;;;;;;;34.46;35.90;100660.81;4847855;29;20059;-73
2021/07/21 09:12:24;;;;;;;10.68;6.10;;;;;;;34.87;35.05;100658.69;4847584;29;20053;-73
2021/07/21 09:15:30;;;;;;;16.10;6.22;;;;;;;34.79;35.70;100668.47;4837167;29;20405;-73
2021/07/21 09:18:52;;;;;;;10.20;5.53;;;;;;;34.91;35.92;100666.19;4839704;29;20060;-73
2021/07/21 09:22:39;;;;;;;9.80;5.28;;;;;;;35.08;34.47;100658.31;4856484;29;20052;-73
2021/07/21 09:25:44;;;;;;;13.30;5.22;;;;;;;35.22;34.72;100659.34;4858014;29;20052;-73
2021/07/21 09:28:50;;;;;;;16.63;6.93;;;;;;;34.59;37.61;100666.63;4857646;29;20045;-73
2021/07/21 09:31:59;;;;;;;15.18;6.35;;;;;;;34.60;37.35;100659.94;4857966;29;20067;-73
2021/07/21 09:35:04;;;;;;;10.48;5.30;;;;;;;34.97;36.56;100659.47;4857255;29;20409;-73
2021/07/21 09:38:14;;;;;;;9.88;5.40;;;;;;;35.00;36.52;100661.69;4857669;29;20053;-74
2021/07/21 09:41:19;;;;;;;12.25;5.25;;;;;;;34.91;35.92;100668.97;4851878;29;20052;-73
2021/07/21 09:44:39;;;;;;;13.48;5.30;;;;;;;34.78;36.74;100655.66;4839337;29;20049;-73
2021/07/21 09:47:56;;;;;;;13.68;5.40;;;;;;;34.28;36.48;100644.69;4839598;29;20069;-73
2021/07/21 09:51:00;;;;;;;10.70;5.88;;;;;;;33.96;37.32;100657.00;4828731;29;20074;-73
2021/07/21 09:54:12;;;;;;;13.93;5.90;;;;;;;34.01;38.14;100645.00;4839396;29;20049;-74
2021/07/21 09:57:16;;;;;;;;;;;;;;;34.08;37.32;100644.75;4838794;29;20056;-73
2021/07/21 10:00:35;;;;;;;15.05;5.38;;;;;;;34.00;37.82;100644.16;4867968;29;19919;-73
2021/07/21 10:03:40;;;;;;;15.70;5.93;;;;;;;33.96;37.71;100642.25;4857383;29;20053;-73
2021/07/21 10:06:45;;;;;;;11.63;5.20;;;;;;;34.07;37.60;100643.09;4846976;29;20060;-73
2021/07/21 10:09:50;;;;;;;12.57;5.47;;;;;;;33.87;37.75;100639.19;4857563;29;20520;-73
2021/07/21 10:13:03;;;;;;;11.73;5.18;;;;;;;34.10;37.93;100643.34;4857304;29;20063;-73
2021/07/21 10:16:07;;;;;;;;;;;;;;;34.27;37.30;100637.47;4857983;29;20085;-73
2021/07/21 10:19:26;;;;;;;8.23;4.80;;;;;;;34.34;36.35;100633.25;4857294;29;19916;-72
2021/07/21 10:22:30;;;;;;;9.82;4.82;;;;;;;34.61;36.38;100641.25;4857295;29;20060;-72
2021/07/21 10:25:38;;;;;;;10.38;5.03;;;;;;;34.38;36.70;100636.28;4857569;29;20072;-72
2021/07/21 10:28:42;;;;;;;12.52;5.30;;;;;;;34.02;36.12;100636.38;4849450;29;20049;-72
2021/07/21 10:31:47;;;;;;;7.43;5.28;;;;;;;34.05;36.28;100629.41;4860796;29;20053;-72
2021/07/21 10:34:52;;;;;;;14.65;4.85;;;;;;;34.09;35.78;100638.06;4860243;29;20069;-72
2021/07/21 10:37:58;;;;;;;8.68;5.38;;;;;;;33.83;36.87;100635.28;4860786;29;20410;-72
2021/07/21 10:41:05;;;;;;;7.57;5.13;;;;;;;33.81;37.04;100628.34;4860491;29;20052;-72
2021/07/21 10:44:11;;;;;;;10.60;5.30;;;;;;;33.55;36.90;100621.97;4860097;29;20056;-72
2021/07/21 10:47:23;;;;;;;7.78;4.75;;;;;;;33.75;37.42;100624.72;4849965;29;20056;-72
2021/07/21 10:54:11;;;;;;;9.52;4.95;;;;;;;34.65;36.76;100620.03;4860273;29;20405;-72
2021/07/21 11:00:47;;;;;;;12.07;5.57;;;;;;;34.78;35.67;100604.63;4860075;29;20119;-72
2021/07/21 11:04:03;;;;;;;15.70;5.43;;;;;;;34.29;36.23;100604.56;4859856;29;20057;-72
2021/07/21 11:07:08;;;;;;;8.40;5.10;;;;;;;34.29;36.01;100601.78;4859847;29;20421;-74
2021/07/21 11:10:13;;;;;;;9.75;5.07;;;;;;;34.31;35.51;100600.38;4859914;29;20512;-72
2021/07/21 11:13:29;;;;;;;8.18;4.65;;;;;;;34.22;35.49;100604.84;4860110;29;20056;-72
2021/07/21 11:16:41;;;;;;;10.88;4.78;;;;;;;34.19;35.26;100596.22;4849596;29;20131;-72
2021/07/21 11:19:46;;;;;;;8.40;4.63;;;;;;;34.34;34.69;100594.22;4859740;29;20045;-72
2021/07/21 11:22:50;;;;;;;9.57;5.10;;;;;;;34.36;35.84;100588.34;4848686;29;20401;-72
2021/07/21 11:26:28;;;;;;;9.30;4.50;;;;;;;34.19;35.08;100588.72;4849424;29;20056;-71
2021/07/21 11:29:33;;;;;;;10.50;4.60;;;;;;;34.07;35.22;100577.06;4849214;29;20063;-73
2021/07/21 11:32:38;;;;;;;9.05;4.60;;;;;;;34.15;36.53;100575.63;4848798;29;20052;-73
2021/07/21 11:35:43;;;;;;;14.40;4.88;;;;;;;34.01;36.80;100578.97;4859859;29;20504;-73
2021/07/21 11:38:53;;;;;;;10.82;5.20;;;;;;;33.93;37.81;100573.97;4858537;29;20056;-72
2021/07/21 11:41:58;;;;;;;8.07;5.03;;;;;;;34.05;37.75;100575.66;4859490;29;20065;-73
2021/07/21 11:45:05;;;;;;;9.23;4.55;;;;;;;34.22;36.83;100568.59;4859006;29;20138;-72
2021/07/21 11:48:11;;;;;;;9.27;4.70;;;;;;;34.48;36.30;100563.75;4848984;29;20075;-72
2021/07/21 11:51:16;;;;;;;11.98;5.10;;;;;;;34.41;35.47;100566.03;4858288;29;20075;-72
2021/07/21 11:54:30;;;;;;;8.32;4.22;;;;;;;34.31;35.80;100560.50;4848556;29;20045;-72
2021/07/21 11:57:35;;;;;;;7.28;4.30;;;;;;;34.14;35.52;100562.81;4880882;29;20076;-73
2021/07/21 12:00:46;;;;;;;8.30;4.80;;;;;;;34.08;36.32;100550.00;4848663;29;20048;-73
2021/07/21 12:03:51;;;;;;;15.68;5.43;;;;;;;33.91;36.02;100547.53;4869416;29;20060;-73
2021/07/21 12:06:55;;;;;;;7.82;4.70;;;;;;;33.61;37.07;100539.25;4880664;29;20071;-74
2021/07/21 12:10:11;;;;;;;13.02;4.97;;;;;;;33.53;37.12;100545.38;4880482;29;20064;-73
2021/07/21 12:13:19;;;;;;;9.98;4.40;;;;;;;33.60;37.28;100541.22;4858869;29;20072;-72
2021/07/21 12:16:26;;;;;;;9.50;4.55;;;;;;;33.75;37.28;100537.56;4858821;29;20064;-72
2021/07/21 12:19:31;;;;;;;13.55;4.78;;;;;;;33.77;37.12;100544.50;4847917;29;20072;-72
2021/07/21 12:22:45;;;;;;;12.10;4.45;;;;;;;33.77;37.00;100540.88;4880431;29;20056;-72
2021/07/21 12:25:50;;;;;;;10.70;4.95;;;;;;;33.81;36.88;100533.63;4851578;29;20053;-72
2021/07/21 12:28:56;;;;;;;12.52;4.95;;;;;;;33.90;36.94;100538.31;4861745;29;20056;-72
2021/07/21 12:32:13;;;;;;;7.10;4.60;;;;;;;33.80;36.47;100540.34;4867023;29;20055;-72
2021/07/21 12:35:20;;;;;;;9.70;4.13;;;;;;;33.88;35.92;100531.38;4879384;29;20060;-72
2021/07/21 12:38:25;;;;;;;10.35;5.00;;;;;;;33.72;35.95;100529.75;4880191;29;20052;-72
2021/07/21 12:41:29;;;;;;;11.85;5.32;;;;;;;33.69;36.36;100528.38;4880612;29;20056;-72
2021/07/21 12:44:43;;;;;;;7.57;4.63;;;;;;;33.84;36.53;100522.75;4879120;29;20060;-72
2021/07/21 12:47:53;;;;;;;8.65;4.32;;;;;;;33.95;36.06;100517.97;4880307;29;20056;-71
2021/07/21 12:50:58;;;;;;;10.63;4.70;;;;;;;33.89;36.07;100522.75;4867990;29;20063;-72
2021/07/21 12:54:02;;;;;;;6.88;3.95;;;;;;;33.77;35.81;100519.44;4879001;29;20059;-72
2021/07/21 12:57:10;;;;;;;6.75;4.47;;;;;;;33.89;35.95;100521.91;4879706;29;20507;-72
2021/07/21 13:00:15;;;;;;;12.10;4.78;;;;;;;34.02;36.07;100524.09;4868203;29;20057;-73
2021/07/21 13:03:21;;;;;;;7.30;4.90;;;;;;;34.02;36.71;100508.19;4879660;29;20065;-73
2021/07/21 13:06:27;;;;;;;10.50;4.85;;;;;;;34.10;36.76;100511.56;4860703;29;20060;-72
2021/07/21 13:09:33;;;;;;;9.23;4.45;;;;;;;34.10;36.67;100504.00;4861499;29;20061;-72
2021/07/21 13:12:38;;;;;;;6.53;4.45;;;;;;;34.06;36.34;100504.88;4883446;29;20432;-73
2021/07/21 13:15:42;;;;;;;11.63;4.60;;;;;;;34.20;36.25;100497.53;4878247;29;20060;-73
2021/07/21 13:18:49;;;;;;;10.18;4.38;;;;;;;34.33;36.23;100494.97;4879356;29;20051;-72
2021/07/21 13:21:54;;;;;;;7.25;4.90;;;;;;;34.44;35.53;100495.75;4879514;29;20060;-72
2021/07/21 13:25:10;;;;;;;6.68;4.28;;;;;;;34.56;35.58;100507.41;4879475;29;20069;-72
2021/07/21 13:28:27;;;;;;;9.60;4.38;;;;;;;34.67;35.10;100493.09;4879660;29;20060;-72
2021/07/21 13:31:35;;;;;;;10.00;4.15;;;;;;;34.74;35.13;100497.53;4879618;29;20056;-72
2021/07/21 13:34:43;;;;;;;11.93;4.15;;;;;;;34.68;35.75;100493.94;4859875;29;20057;-72
2021/07/21 13:37:55;;;;;;;7.47;4.60;;;;;;;34.67;35.75;100493.09;4860871;29;20057;-73
2021/07/21 13:41:09;;;;;;;7.55;4.50;;;;;;;34.54;35.59;100498.50;4860560;29;20064;-72
2021/07/21 13:44:25;;;;;;;10.20;4.78;;;;;;;34.39;36.07;100499.41;4859727;29;20064;-74
2021/07/21 13:47:30;;;;;;;6.07;4.40;;;;;;;34.39;36.37;100493.00;4860182;29;20053;-73
2021/07/21 13:50:34;;;;;;;7.88;4.47;;;;;;;34.52;35.87;100495.97;4859905;29;20508;-74
2021/07/21 13:53:42;;;;;;;11.05;5.10;;;;;;;34.49;36.33;100496.53;4860767;29;20064;-73
2021/07/21 13:56:52;;;;;;;9.43;4.65;;;;;;;34.49;36.05;100496.53;4860037;29;20065;-73
2021/07/21 13:59:57;;;;;;;8.32;4.05;;;;;;;34.70;36.46;100493.63;4859856;29;20049;-73
2021/07/21 14:03:01;;;;;;;8.15;4.28;;;;;;;34.83;36.19;100498.56;4862244;29;20049;-73
2021/07/21 14:06:06;;;;;;;12.75;4.45;;;;;;;34.77;36.52;100494.13;4864431;29;20065;-72
2021/07/21 14:09:13;;;;;;;10.88;4.25;;;;;;;34.77;35.95;100475.44;4864125;29;20061;-72
2021/07/21 14:12:17;;;;;;;5.85;4.22;;;;;;;34.94;35.56;100481.44;4863276;29;20354;-73
2021/07/21 14:15:22;;;;;;;10.43;4.13;;;;;;;35.11;35.66;100489.44;4864316;29;20064;-73
2021/07/21 14:18:27;;;;;;;10.13;5.07;;;;;;;35.07;35.61;100480.81;4863549;29;20064;-72
2021/07/21 14:21:32;;;;;;;9.07;4.90;;;;;;;34.69;35.83;100495.59;4864114;29;20050;-72
2021/07/21 14:24:37;;;;;;;10.55;4.28;;;;;;;34.63;36.57;100486.44;4862988;29;20060;-73
2021/07/21 14:27:42;;;;;;;12.48;4.45;;;;;;;34.75;36.13;100480.50;4863896;29;20054;-73
2021/07/21 14:30:47;;;;;;;8.00;4.45;;;;;;;34.75;36.73;100490.81;4863718;29;20065;-73
2021/07/21 14:33:53;;;;;;;10.00;4.25;;;;;;;34.75;36.36;100474.91;4872656;29;20052;-73
2021/07/21 14:36:57;;;;;;;7.95;4.68;;;;;;;34.65;36.27;100467.47;4882291;29;20064;-73
2021/07/21 14:40:02;;;;;;;11.43;4.53;;;;;;;34.67;36.40;100475.53;4870503;29;20064;-73
2021/07/21 14:43:06;;;;;;;11.05;4.40;;;;;;;34.77;36.44;100475.44;4870637;29;20874;-73
2021/07/21 14:46:11;;;;;;;9.38;4.30;;;;;;;35.00;35.81;100473.88;4882421;29;20057;-73
2021/07/21 14:49:17;;;;;;;7.70;4.43;;;;;;;35.17;35.88;100468.72;4860029;29;20440;-73